createdAt,value
2018-03-15T06:23:59.071Z,94497.05
2018-03-15T06:26:25.459Z,94471.27
2018-03-15T06:28:51.615Z,94485.46
2018-03-15T06:31:17.819Z,94505.74
2018-03-15T06:33:43.987Z,94502.72
2018-03-15T06:36:10.105Z,94491.52
2018-03-15T06:38:36.246Z,94491.94
2018-03-15T06:41:02.403Z,94485.11
2018-03-15T06:43:28.610Z,94503.57
2018-03-15T06:45:54.760Z,94493.28
2018-03-15T06:48:20.901Z,94520.01
2018-03-15T06:50:47.054Z,94509.40
2018-03-15T06:53:13.213Z,94519.25
2018-03-15T06:55:39.372Z,94521.41
2018-03-15T06:58:06.280Z,94510.22
2018-03-15T07:00:32.469Z,94526.63
2018-03-15T07:02:58.605Z,94527.06
2018-03-15T07:05:24.915Z,94527.48
2018-03-15T07:07:51.142Z,94508.05
2018-03-15T07:10:17.285Z,94527.67
2018-03-15T07:12:43.475Z,94526.70
2018-03-15T07:15:09.691Z,94509.58
2018-03-15T07:17:35.912Z,94525.98
2018-03-15T07:20:02.135Z,94533.58
2018-03-15T07:22:28.333Z,94524.95
2018-03-15T07:24:54.786Z,94515.13
2018-03-15T07:27:21.009Z,94536.77
2018-03-15T07:29:47.325Z,94537.14
2018-03-15T07:32:13.555Z,94524.72
2018-03-15T07:34:39.877Z,94538.34
2018-03-15T07:37:06.041Z,94528.35
2018-03-15T07:39:32.257Z,94528.17
2018-03-15T07:41:58.451Z,94538.91
2018-03-15T07:44:24.616Z,94542.50
2018-03-15T07:46:50.769Z,94542.88
2018-03-15T07:49:16.970Z,94510.15
2018-03-15T07:51:43.247Z,94528.04
2018-03-15T07:54:09.366Z,94539.28
2018-03-15T07:56:35.632Z,94535.47
2018-03-15T07:59:01.832Z,94530.91
2018-03-15T08:01:28.125Z,94521.23
2018-03-15T08:03:54.391Z,94536.95
2018-03-15T08:06:20.604Z,94526.15
2018-03-15T08:08:46.864Z,94540.76
2018-03-15T08:11:13.046Z,94542.10
2018-03-15T08:13:39.189Z,94521.66
2018-03-15T08:16:05.343Z,94544.02
2018-03-15T08:18:31.621Z,94495.70
2018-03-15T08:20:57.757Z,94534.69
2018-03-15T08:23:23.919Z,94539.50
2018-03-15T08:25:50.119Z,94529.86
2018-03-15T08:28:17.203Z,94518.39
2018-03-15T08:30:43.368Z,94526.55
2018-03-15T08:33:09.491Z,94519.97
2018-03-15T08:35:35.814Z,94509.34
2018-03-15T08:38:02.064Z,94481.30
2018-03-15T08:40:28.257Z,94544.50
2018-03-15T08:42:54.495Z,94513.72
2018-03-15T08:45:20.869Z,94536.54
2018-03-15T08:47:47.119Z,94537.89
2018-03-15T08:50:13.258Z,94520.04
2018-03-15T08:52:39.456Z,94552.59
2018-03-15T08:55:05.565Z,94543.77
2018-03-15T08:57:31.768Z,94512.55
2018-03-15T08:59:57.925Z,94523.44
2018-03-15T09:02:24.077Z,94539.72
2018-03-15T09:04:50.368Z,94513.86
2018-03-15T09:07:16.445Z,94539.11
2018-03-15T09:09:43.449Z,94529.76
2018-03-15T09:12:09.899Z,94535.27
2018-03-15T09:14:36.609Z,94530.20
2018-03-15T09:17:03.356Z,94531.73
2018-03-15T09:19:29.846Z,94515.30
2018-03-15T09:21:56.267Z,94528.33
2018-03-15T09:24:22.766Z,94490.66
2018-03-15T09:26:49.167Z,94528.37
2018-03-15T09:29:15.351Z,94505.80
2018-03-15T09:31:41.873Z,94506.46
2018-03-15T09:34:08.698Z,94494.72
2018-03-15T09:36:36.156Z,94496.59
2018-03-15T09:39:05.982Z,94507.59
2018-03-15T09:41:36.487Z,94499.13
2018-03-15T09:44:02.906Z,94531.59
2018-03-15T09:46:29.745Z,94507.94
2018-03-15T09:48:56.232Z,94531.77
2018-03-15T09:51:22.921Z,94485.74
2018-03-15T09:53:49.450Z,94513.36
2018-03-15T09:56:16.527Z,94508.09
2018-03-15T09:58:44.636Z,94500.02
2018-03-15T10:01:11.164Z,94501.12
2018-03-15T10:03:37.527Z,94502.72
2018-03-15T10:06:04.126Z,94496.95
2018-03-15T10:08:47.620Z,94515.20
2018-03-15T10:31:54.039Z,94502.27
2018-03-15T10:34:20.254Z,94501.64
2018-03-15T10:36:46.532Z,94519.84
2018-03-15T10:39:12.858Z,94477.84
2018-03-15T10:41:39.176Z,94523.88
2018-03-15T10:44:05.438Z,94491.93
2018-03-15T10:46:31.741Z,94514.14
2018-03-15T10:48:58.149Z,94518.72
2018-03-15T10:51:24.485Z,94524.11
2018-03-15T10:53:50.850Z,94514.47
2018-03-15T10:56:17.147Z,94508.20
2018-03-15T10:58:43.403Z,94487.38
2018-03-15T11:01:09.653Z,94504.89
2018-03-15T11:03:36.143Z,94479.09
2018-03-15T11:06:02.409Z,94487.08
2018-03-15T11:08:28.816Z,94503.53
2018-03-15T11:10:55.130Z,94490.77
2018-03-15T11:13:21.520Z,94476.86
2018-03-15T11:15:47.806Z,94488.78
2018-03-15T11:18:14.039Z,94483.02
2018-03-15T11:20:40.305Z,94481.70
2018-03-15T11:23:06.528Z,94487.52
2018-03-15T11:25:32.777Z,94475.86
2018-03-15T11:27:59.026Z,94478.47
2018-03-15T11:30:33.132Z,94446.53
2018-03-15T11:32:59.366Z,94465.90
2018-03-15T11:35:25.646Z,94464.65
2018-03-15T11:37:51.987Z,94469.50
2018-03-15T11:51:00.166Z,94425.19
2018-03-15T11:53:26.493Z,94466.06
2018-03-15T11:55:52.913Z,94466.78
2018-03-15T11:58:19.167Z,94446.00
2018-03-15T12:11:26.610Z,94438.98
2018-03-15T12:13:54.917Z,94416.38
2018-03-15T12:16:21.081Z,94415.36
2018-03-15T12:18:47.343Z,94411.91
2018-03-15T12:21:13.611Z,94434.09
2018-03-15T12:23:39.822Z,94414.47
2018-03-15T12:26:06.019Z,94404.36
2018-03-15T12:28:32.252Z,94421.97
2018-03-15T12:30:58.495Z,94386.84
2018-03-15T12:33:24.815Z,94435.50
2018-03-15T12:35:51.039Z,94428.75
2018-03-15T12:38:18.362Z,94409.98
2018-03-15T12:40:51.970Z,94432.33
2018-03-15T12:43:18.470Z,94424.43
2018-03-15T12:45:46.729Z,94416.73
2018-03-15T12:53:55.744Z,94431.42
2018-03-15T16:37:40.830Z,94423.28
2018-03-15T16:40:07.166Z,94424.99
2018-03-15T16:42:33.561Z,94420.52
2018-03-15T16:44:59.887Z,94426.86
2018-03-15T16:47:26.229Z,94423.45
2018-03-15T16:50:21.951Z,94423.61
2018-03-15T16:54:41.862Z,94428.27
2018-03-15T16:57:08.208Z,94435.84
2018-03-15T16:59:34.591Z,94438.84
2018-03-15T17:02:00.955Z,94442.48
2018-03-15T17:04:27.338Z,94430.16
2018-03-15T17:06:53.710Z,94431.31
2018-03-15T17:09:20.139Z,94429.74
2018-03-15T17:11:46.478Z,94437.21
2018-03-15T17:14:12.861Z,94439.19
2018-03-15T17:16:39.199Z,94442.34
2018-03-15T17:19:05.577Z,94448.58
2018-03-15T17:21:32.000Z,94448.45
2018-03-15T17:23:58.340Z,94443.95
2018-03-15T17:26:24.809Z,94442.82
2018-03-15T17:28:51.228Z,94443.17
2018-03-15T17:31:17.623Z,94450.38
2018-03-15T17:33:43.981Z,94458.70
2018-03-15T17:36:10.478Z,94450.61
2018-03-15T17:38:36.815Z,94455.89
2018-03-15T17:41:03.168Z,94469.43
2018-03-15T17:43:29.558Z,94479.70
2018-03-15T17:45:55.963Z,94474.21
2018-03-15T17:48:22.337Z,94488.34
2018-03-15T17:50:48.703Z,94490.99
2018-03-15T17:53:15.093Z,94495.91
2018-03-15T17:55:41.469Z,94503.55
2018-03-15T17:58:07.846Z,94509.05
2018-03-15T18:00:34.197Z,94512.27
2018-03-15T18:03:00.573Z,94509.90
2018-03-15T18:05:27.024Z,94519.05
2018-03-15T18:07:53.366Z,94521.72
2018-03-15T18:10:19.697Z,94517.63
2018-03-15T18:12:46.041Z,94523.33
2018-03-15T18:15:12.378Z,94519.15
2018-03-15T18:17:38.810Z,94519.75
2018-03-15T18:20:05.156Z,94518.86
2018-03-15T18:22:31.481Z,94521.37
2018-03-15T18:24:57.811Z,94526.07
2018-03-15T18:27:24.177Z,94522.47
2018-03-15T18:29:50.552Z,94518.20
2018-03-15T18:32:16.930Z,94520.90
2018-03-15T18:34:43.271Z,94513.37
2018-03-15T18:37:09.699Z,94514.10
2018-03-15T18:39:36.039Z,94516.09
2018-03-15T18:42:02.503Z,94517.78
2018-03-15T18:44:28.831Z,94518.38
2018-03-15T18:46:55.187Z,94511.61
2018-03-15T18:49:21.526Z,94513.09
2018-03-15T18:51:47.942Z,94510.50
2018-03-15T18:54:14.325Z,94511.33
2018-03-15T18:56:40.698Z,94505.09
2018-03-15T18:59:07.051Z,94515.76
2018-03-15T19:01:33.395Z,94513.83
2018-03-15T19:03:59.722Z,94515.02
2018-03-15T19:06:26.188Z,94514.93
2018-03-15T19:08:52.524Z,94514.75
2018-03-15T19:11:18.862Z,94516.22
2018-03-15T19:13:45.202Z,94523.08
2018-03-15T19:16:11.541Z,94513.50
2018-03-15T19:18:37.929Z,94518.76
2018-03-15T19:21:04.279Z,94522.13
2018-03-15T19:23:30.649Z,94521.87
2018-03-15T19:25:57.022Z,94520.23
2018-03-15T19:28:23.402Z,94529.14
2018-03-15T19:30:49.753Z,94525.68
2018-03-15T19:33:16.135Z,94528.24
2018-03-15T19:35:42.525Z,94524.44
2018-03-15T19:38:08.863Z,94521.80
2018-03-15T19:40:35.320Z,94517.03
2018-03-15T19:43:01.701Z,94523.19
2018-03-15T19:45:28.058Z,94538.16
2018-03-15T19:47:54.437Z,94543.30
2018-03-15T19:50:20.912Z,94541.66
2018-03-15T19:52:47.245Z,94547.23
2018-03-15T19:55:13.632Z,94547.84
2018-03-15T19:57:40.042Z,94553.07
2018-03-15T20:00:06.379Z,94545.68
2018-03-15T20:02:32.710Z,94546.74
2018-03-15T20:04:59.051Z,94545.60
2018-03-15T20:07:25.397Z,94553.46
2018-03-15T20:09:51.740Z,94549.05
2018-03-15T20:12:18.144Z,94553.67
2018-03-15T20:14:44.498Z,94557.07
2018-03-15T20:17:10.865Z,94541.73
2018-03-15T20:19:37.213Z,94544.17
2018-03-15T20:22:03.654Z,94550.75
2018-03-15T20:24:29.988Z,94557.61
2018-03-15T20:26:56.391Z,94562.48
2018-03-15T20:29:22.785Z,94565.53
2018-03-15T20:31:49.180Z,94560.05
2018-03-15T20:34:15.558Z,94566.09
2018-03-15T20:36:41.920Z,94561.52
2018-03-15T20:39:08.246Z,94561.38
2018-03-15T20:41:34.619Z,94566.95
2018-03-15T20:44:00.971Z,94564.52
2018-03-15T20:46:27.354Z,94565.20
2018-03-15T20:48:53.728Z,94573.13
2018-03-15T20:51:20.126Z,94564.38
2018-03-15T20:53:46.465Z,94562.73
2018-03-15T20:56:12.838Z,94559.14
2018-03-15T20:58:39.306Z,94552.34
2018-03-15T21:01:05.711Z,94554.05
2018-03-15T21:03:32.076Z,94549.70
2018-03-15T21:05:58.441Z,94551.55
2018-03-15T21:08:24.841Z,94550.17
2018-03-15T21:10:51.371Z,94558.73
2018-03-15T21:13:17.962Z,94549.48
2018-03-15T21:15:44.310Z,94552.33
2018-03-15T21:18:10.649Z,94541.58
2018-03-15T21:20:37.029Z,94555.23
2018-03-15T21:23:03.457Z,94548.44
2018-03-15T21:25:29.791Z,94547.95
2018-03-15T21:27:56.269Z,94549.03
2018-03-15T21:30:22.622Z,94544.55
2018-03-15T21:32:49.025Z,94543.94
2018-03-15T21:35:15.354Z,94542.91
2018-03-15T21:40:14.194Z,94543.08
2018-03-15T21:42:40.606Z,94547.20
2018-03-15T21:45:06.948Z,94548.30
2018-03-15T21:47:33.333Z,94550.87
2018-03-15T21:49:59.664Z,94550.60
2018-03-15T21:52:25.993Z,94550.02
2018-03-15T21:54:52.370Z,94554.95
2018-03-15T21:57:18.742Z,94548.92
2018-03-15T21:59:45.072Z,94555.21
2018-03-15T22:02:11.437Z,94553.72
2018-03-15T22:04:37.778Z,94548.02
2018-03-15T22:07:04.165Z,94558.87
2018-03-15T22:09:30.512Z,94554.23
2018-03-15T22:11:56.849Z,94560.05
2018-03-15T22:14:23.179Z,94557.18
2018-03-15T22:16:49.564Z,94559.60
2018-03-15T22:19:15.902Z,94557.64
2018-03-15T22:21:42.294Z,94547.76
2018-03-15T22:24:08.682Z,94549.71
2018-03-15T22:26:35.011Z,94545.90
2018-03-15T22:29:01.353Z,94553.68
2018-03-15T22:31:27.697Z,94553.73
2018-03-15T22:33:54.065Z,94547.20
2018-03-15T22:36:20.386Z,94542.00
2018-03-15T22:38:46.766Z,94541.17
2018-03-15T22:41:13.137Z,94547.76
2018-03-15T22:43:39.461Z,94532.57
2018-03-15T22:46:05.858Z,94533.84
2018-03-15T22:48:32.299Z,94528.48
2018-03-15T22:50:58.649Z,94528.37
2018-03-15T22:53:25.059Z,94516.78
2018-03-15T22:55:51.446Z,94510.05
2018-03-15T22:58:17.785Z,94522.45
2018-03-15T23:00:44.172Z,94513.95
2018-03-15T23:03:10.530Z,94506.44
2018-03-15T23:05:36.859Z,94506.77
2018-03-15T23:08:03.281Z,94501.34
2018-03-15T23:10:29.607Z,94498.52
2018-03-15T23:12:55.965Z,94495.33
2018-03-15T23:15:22.385Z,94487.91
2018-03-15T23:17:48.730Z,94493.47
2018-03-15T23:20:15.115Z,94492.09
2018-03-15T23:22:41.490Z,94496.09
2018-03-15T23:25:07.828Z,94495.95
2018-03-15T23:27:34.168Z,94504.55
2018-03-15T23:30:00.557Z,94498.61
2018-03-15T23:32:26.891Z,94492.91
2018-03-15T23:34:53.262Z,94491.47
2018-03-15T23:37:19.648Z,94499.59
2018-03-15T23:39:46.057Z,94494.96
2018-03-15T23:42:12.417Z,94492.18
2018-03-15T23:44:38.794Z,94491.63
2018-03-15T23:47:05.130Z,94477.72
2018-03-15T23:49:31.520Z,94491.88
2018-03-15T23:51:57.918Z,94490.11
2018-03-15T23:54:24.277Z,94488.94
2018-03-15T23:56:50.683Z,94488.83
2018-03-15T23:59:17.026Z,94491.67
